createdAt,value
2023-04-01T00:00:29.047Z,15.80
2023-04-01T00:01:29.046Z,17.50
2023-04-01T00:02:29.110Z,19.20
2023-04-01T00:03:29.210Z,14.10
2023-04-01T00:04:29.079Z,14.10
2023-04-01T00:05:29.027Z,15.20
2023-04-01T00:06:29.001Z,17.70
2023-04-01T00:07:30.642Z,16.80
2023-04-01T00:08:28.974Z,14.70
2023-04-01T00:09:29.982Z,14.00
2023-04-01T00:10:28.949Z,16.50
2023-04-01T00:11:28.934Z,13.80
2023-04-01T00:12:28.959Z,15.90
2023-04-01T00:13:28.921Z,14.40
2023-04-01T00:14:28.912Z,14.80
2023-04-01T00:15:28.918Z,15.40
2023-04-01T00:16:28.960Z,15.00
2023-04-01T00:17:28.940Z,14.20
2023-04-01T00:18:28.879Z,13.70
2023-04-01T00:19:28.866Z,15.20
2023-04-01T00:20:28.853Z,11.10
2023-04-01T00:21:28.877Z,14.20
2023-04-01T00:22:28.854Z,12.90
2023-04-01T00:23:28.821Z,13.30
2023-04-01T00:24:28.814Z,15.20
2023-04-01T00:25:28.805Z,15.30
2023-04-01T00:26:28.821Z,15.90
2023-04-01T00:27:28.835Z,15.50
2023-04-01T00:28:28.784Z,15.80
2023-04-01T00:29:28.767Z,15.80
2023-04-01T00:30:28.760Z,13.40
2023-04-01T00:31:28.785Z,12.80
2023-04-01T00:32:28.808Z,16.40
2023-04-01T00:33:28.723Z,13.20
2023-04-01T00:34:28.724Z,17.40
2023-04-01T00:35:28.707Z,15.60
2023-04-01T00:36:28.718Z,12.50
2023-04-01T00:37:28.753Z,14.20
2023-04-01T00:38:28.675Z,12.60
2023-04-01T00:39:28.664Z,15.50
2023-04-01T00:40:28.662Z,14.80
2023-04-01T00:41:28.640Z,14.20
2023-04-01T00:42:28.654Z,14.70
2023-04-01T00:43:28.645Z,15.40
2023-04-01T00:44:28.622Z,12.60
2023-04-01T00:45:28.614Z,14.40
2023-04-01T00:46:28.633Z,14.60
2023-04-01T00:47:28.634Z,13.90
2023-04-01T00:48:28.585Z,13.60
2023-04-01T00:49:28.577Z,15.80
2023-04-01T00:50:28.562Z,14.20
2023-04-01T00:51:28.576Z,12.80
2023-04-01T00:52:28.560Z,13.70
2023-04-01T00:53:28.522Z,14.00
2023-04-01T00:54:28.567Z,14.90
2023-04-01T00:55:28.510Z,14.70
2023-04-01T00:56:28.526Z,15.90
2023-04-01T00:57:28.538Z,15.30
2023-04-01T00:58:28.514Z,15.80
2023-04-01T00:59:28.472Z,15.00
2023-04-01T01:00:28.474Z,16.00
2023-04-01T01:01:28.481Z,16.70
2023-04-01T01:02:28.518Z,14.60
2023-04-01T01:03:28.418Z,12.10
2023-04-01T01:04:28.415Z,15.10
2023-04-01T01:05:29.392Z,16.00
2023-04-01T01:06:28.421Z,17.40
2023-04-01T01:07:28.411Z,13.90
2023-04-01T01:08:28.412Z,14.70
2023-04-01T01:09:28.363Z,13.30
2023-04-01T01:10:28.355Z,15.30
2023-04-01T01:11:33.546Z,15.90
2023-04-01T01:12:28.371Z,15.50
2023-04-01T01:13:28.320Z,14.10
2023-04-01T01:14:28.312Z,12.70
2023-04-01T01:15:28.303Z,12.80
2023-04-01T01:16:28.336Z,15.60
2023-04-01T01:17:28.329Z,12.70
2023-04-01T01:18:28.275Z,16.30
2023-04-01T01:19:28.261Z,13.40
2023-04-01T01:20:28.254Z,14.30
2023-04-01T01:21:28.249Z,12.80
2023-04-01T01:22:28.250Z,14.70
2023-04-01T01:23:28.226Z,11.60
2023-04-01T01:24:28.216Z,15.10
2023-04-01T01:25:28.196Z,14.80
2023-04-01T01:26:28.207Z,13.80
2023-04-01T01:27:28.182Z,14.10
2023-04-01T01:28:28.171Z,13.00
2023-04-01T01:29:28.160Z,15.80
2023-04-01T01:30:28.154Z,14.70
2023-04-01T01:31:28.218Z,14.60
2023-04-01T01:32:28.199Z,13.60
2023-04-01T01:33:28.119Z,11.30
2023-04-01T01:34:28.110Z,11.10
2023-04-01T01:35:28.099Z,13.20
2023-04-01T01:36:28.134Z,12.90
2023-04-01T01:37:28.090Z,12.00
2023-04-01T01:38:28.075Z,15.40
2023-04-01T01:39:28.065Z,13.40
2023-04-01T01:40:28.046Z,13.40
2023-04-01T01:41:28.033Z,17.00
2023-04-01T01:42:28.095Z,13.70
2023-04-01T01:43:28.024Z,12.50
2023-04-01T01:44:28.007Z,12.10
2023-04-01T01:45:28.003Z,14.40
2023-04-01T01:46:28.088Z,14.70
2023-04-01T01:47:28.017Z,15.90
2023-04-01T01:48:27.968Z,15.60
2023-04-01T01:49:27.955Z,12.50
2023-04-01T01:50:27.947Z,13.90
2023-04-01T01:51:27.934Z,14.90
2023-04-01T01:52:27.941Z,9.60
2023-04-01T01:53:27.931Z,11.30
2023-04-01T01:54:27.916Z,13.70
2023-04-01T01:55:27.902Z,15.00
2023-04-01T01:56:27.902Z,10.40
2023-04-01T01:57:27.914Z,17.30
2023-04-01T01:58:27.875Z,13.80
2023-04-01T01:59:27.847Z,13.80
2023-04-01T02:00:27.866Z,11.30
2023-04-01T02:01:27.867Z,13.40
2023-04-01T02:02:27.868Z,13.00
2023-04-01T02:03:27.817Z,17.60
2023-04-01T02:04:27.836Z,15.90
2023-04-01T02:05:27.812Z,12.50
2023-04-01T02:06:27.785Z,15.20
2023-04-01T02:07:27.784Z,12.30
2023-04-01T02:08:27.776Z,17.80
2023-04-01T02:09:27.752Z,13.50
2023-04-01T02:10:27.759Z,15.30
2023-04-01T02:11:27.737Z,13.30
2023-04-01T02:12:27.790Z,14.60
2023-04-01T02:13:27.710Z,11.90
2023-04-01T02:14:27.716Z,12.30
2023-04-01T02:15:27.699Z,10.50
2023-04-01T02:16:27.841Z,12.20
2023-04-01T02:17:27.834Z,11.60
2023-04-01T02:18:27.663Z,12.80
2023-04-01T02:19:27.644Z,11.40
2023-04-01T02:20:27.638Z,12.50
2023-04-01T02:21:27.648Z,13.00
2023-04-01T02:22:27.643Z,8.80
2023-04-01T02:23:27.612Z,10.10
2023-04-01T02:24:27.604Z,10.50
2023-04-01T02:25:27.591Z,8.10
2023-04-01T02:26:27.583Z,6.70
2023-04-01T02:27:27.560Z,9.40
2023-04-01T02:28:27.601Z,11.00
2023-04-01T02:29:27.558Z,9.80
2023-04-01T02:30:27.541Z,11.20
2023-04-01T02:31:27.535Z,11.80
2023-04-01T02:32:27.548Z,11.30
2023-04-01T02:33:27.514Z,13.30
2023-04-01T02:34:27.497Z,12.50
2023-04-01T02:35:27.472Z,10.70
2023-04-01T02:36:27.490Z,9.70
2023-04-01T02:37:27.466Z,11.70
2023-04-01T02:38:27.453Z,13.20
2023-04-01T02:39:27.434Z,13.20
2023-04-01T02:40:27.440Z,15.20
2023-04-01T02:41:27.418Z,10.40
2023-04-01T02:42:27.425Z,9.90
2023-04-01T02:43:27.390Z,12.10
2023-04-01T02:44:27.415Z,7.70
2023-04-01T02:45:27.389Z,10.40
2023-04-01T02:46:27.412Z,12.20
2023-04-01T02:47:27.432Z,11.30
2023-04-01T02:48:27.367Z,7.50
2023-04-01T02:49:27.335Z,7.10
2023-04-01T02:50:27.329Z,9.10
2023-04-01T02:51:27.317Z,13.00
2023-04-01T02:52:27.321Z,8.70
2023-04-01T02:53:27.289Z,11.60
2023-04-01T02:54:27.332Z,13.00
2023-04-01T02:55:27.292Z,12.50
2023-04-01T02:56:27.272Z,7.40
2023-04-01T02:57:27.386Z,9.20
2023-04-01T02:58:27.250Z,6.50
2023-04-01T02:59:27.241Z,9.10
2023-04-01T03:00:27.217Z,8.20
2023-04-01T03:01:27.274Z,8.80
2023-04-01T03:02:27.297Z,8.50
2023-04-01T03:03:27.267Z,11.40
2023-04-01T03:04:27.176Z,9.00
2023-04-01T03:05:27.169Z,10.30
2023-04-01T03:06:27.162Z,7.20
2023-04-01T03:07:27.156Z,7.30
2023-04-01T03:08:27.167Z,11.90
2023-04-01T03:09:27.127Z,11.40
2023-04-01T03:10:27.120Z,9.10
2023-04-01T03:11:27.137Z,10.50
2023-04-01T03:12:27.089Z,12.00
2023-04-01T03:13:27.105Z,7.50
2023-04-01T03:14:27.066Z,9.80
2023-04-01T03:15:27.063Z,10.00
2023-04-01T03:16:27.122Z,6.70
2023-04-01T03:17:27.059Z,7.70
2023-04-01T03:18:27.042Z,10.00
2023-04-01T03:19:27.035Z,8.70
2023-04-01T03:20:27.012Z,7.60
2023-04-01T03:21:27.001Z,8.00
2023-04-01T03:22:27.018Z,7.40
2023-04-01T03:23:26.988Z,6.30
2023-04-01T03:24:26.960Z,11.10
2023-04-01T03:25:26.984Z,9.20
2023-04-01T03:26:26.942Z,8.00
2023-04-01T03:27:26.942Z,9.80
2023-04-01T03:28:26.965Z,8.40
2023-04-01T03:29:26.915Z,7.90
2023-04-01T03:30:26.941Z,10.80
2023-04-01T03:31:27.031Z,8.20
2023-04-01T03:32:26.909Z,8.50
2023-04-01T03:33:26.891Z,8.80
2023-04-01T03:34:26.884Z,12.50
2023-04-01T03:35:26.854Z,7.20
2023-04-01T03:36:26.924Z,10.30
2023-04-01T03:37:26.849Z,7.10
2023-04-01T03:38:26.907Z,6.30
2023-04-01T03:39:26.816Z,7.60
2023-04-01T03:40:26.800Z,8.30
2023-04-01T03:41:26.796Z,6.00
2023-04-01T03:42:26.871Z,8.30
2023-04-01T03:43:26.813Z,8.90
2023-04-01T03:44:26.762Z,6.40
2023-04-01T03:45:26.758Z,10.30
2023-04-01T03:46:26.753Z,5.20
2023-04-01T03:47:26.760Z,8.80
2023-04-01T03:48:26.734Z,6.40
2023-04-01T03:49:26.722Z,7.80
2023-04-01T03:50:26.709Z,6.30
2023-04-01T03:51:26.696Z,5.90
2023-04-01T03:52:26.684Z,9.00
2023-04-01T03:53:26.694Z,6.00
2023-04-01T03:54:26.682Z,4.10
2023-04-01T03:55:26.659Z,6.20
2023-04-01T03:56:26.636Z,5.60
2023-04-01T03:57:26.669Z,7.50
2023-04-01T03:58:26.617Z,7.10
2023-04-01T03:59:26.630Z,4.20
2023-04-01T04:00:26.592Z,7.40
2023-04-01T04:01:26.589Z,5.30
2023-04-01T04:02:26.729Z,5.20
2023-04-01T04:03:26.625Z,4.80
2023-04-01T04:04:26.583Z,7.50
2023-04-01T04:05:26.553Z,5.70
2023-04-01T04:06:26.549Z,5.70
2023-04-01T04:07:26.532Z,7.00
2023-04-01T04:08:26.526Z,4.90
2023-04-01T04:09:26.516Z,4.20
2023-04-01T04:10:26.507Z,7.00
2023-04-01T04:11:26.484Z,7.30
2023-04-01T04:12:26.481Z,6.70
2023-04-01T04:13:26.488Z,6.80
2023-04-01T04:14:26.455Z,8.00
2023-04-01T04:15:26.447Z,5.00
2023-04-01T04:16:26.497Z,8.40
2023-04-01T04:17:26.442Z,3.90
2023-04-01T04:18:26.453Z,5.10
2023-04-01T04:19:26.405Z,6.10
2023-04-01T04:20:26.397Z,7.50
2023-04-01T04:21:26.411Z,3.30
2023-04-01T04:22:26.377Z,4.70
2023-04-01T04:23:26.391Z,6.40
2023-04-01T04:24:26.374Z,7.50
2023-04-01T04:25:26.346Z,7.40
2023-04-01T04:26:26.332Z,9.70
2023-04-01T04:27:26.279Z,6.60
2023-04-01T04:28:26.297Z,4.70
2023-04-01T04:29:26.256Z,6.40
2023-04-01T04:30:26.247Z,4.70
2023-04-01T04:31:26.289Z,8.10
2023-04-01T04:32:26.275Z,6.40
2023-04-01T04:33:26.232Z,5.00
2023-04-01T04:34:26.274Z,4.70
2023-04-01T04:35:26.188Z,5.20
2023-04-01T04:36:26.176Z,4.50
2023-04-01T04:37:26.165Z,5.20
2023-04-01T04:38:26.175Z,4.60
2023-04-01T04:39:26.158Z,5.80
2023-04-01T04:40:26.161Z,6.10
2023-04-01T04:41:26.129Z,6.60
2023-04-01T04:42:26.116Z,3.40
2023-04-01T04:43:26.146Z,5.30
2023-04-01T04:44:26.093Z,5.10
2023-04-01T04:45:26.103Z,3.50
2023-04-01T04:46:26.103Z,4.60
2023-04-01T04:47:26.080Z,6.90
2023-04-01T04:48:26.070Z,4.90
2023-04-01T04:49:26.053Z,6.50
2023-04-01T04:50:26.030Z,5.80
2023-04-01T04:51:26.035Z,5.50
2023-04-01T04:52:26.023Z,6.60
2023-04-01T04:53:26.025Z,3.90
2023-04-01T04:54:25.995Z,6.90
2023-04-01T04:55:26.023Z,7.20
2023-04-01T04:56:25.977Z,4.30
2023-04-01T04:57:25.997Z,7.00
2023-04-01T04:58:25.966Z,7.10
2023-04-01T04:59:25.966Z,7.00
2023-04-01T05:00:25.938Z,5.10
2023-04-01T05:01:25.961Z,5.60
2023-04-01T05:02:26.036Z,6.70
2023-04-01T05:03:26.054Z,7.90
2023-04-01T05:04:25.900Z,6.50
2023-04-01T05:05:25.909Z,6.30
2023-04-01T05:06:25.878Z,6.00
2023-04-01T05:07:25.877Z,4.50
2023-04-01T05:08:25.886Z,4.20
2023-04-01T05:09:25.853Z,3.60
2023-04-01T05:10:25.830Z,6.30
2023-04-01T05:11:25.831Z,6.50
2023-04-01T05:12:25.821Z,4.00
2023-04-01T05:13:25.818Z,5.00
2023-04-01T05:14:25.783Z,5.40
2023-04-01T05:15:25.815Z,4.40
2023-04-01T05:16:25.852Z,5.00
2023-04-01T05:17:25.775Z,4.60
2023-04-01T05:18:25.771Z,5.30
2023-04-01T05:19:25.749Z,6.30
2023-04-01T05:20:25.741Z,5.40
2023-04-01T05:21:25.731Z,5.40
2023-04-01T05:22:25.712Z,4.90
2023-04-01T05:23:25.743Z,5.00
2023-04-01T05:24:25.696Z,3.30
2023-04-01T05:25:25.703Z,4.40
2023-04-01T05:26:25.665Z,3.50
2023-04-01T05:27:25.663Z,2.50
2023-04-01T05:28:25.655Z,5.10
2023-04-01T05:29:25.646Z,3.10
2023-04-01T05:30:25.664Z,4.10
2023-04-01T05:31:25.752Z,6.30
2023-04-01T05:32:25.627Z,6.80
2023-04-01T05:33:25.618Z,4.60
2023-04-01T05:34:25.586Z,6.40
2023-04-01T05:35:25.618Z,3.40
2023-04-01T05:36:25.618Z,5.20
2023-04-01T05:37:25.565Z,5.50
2023-04-01T05:38:25.575Z,3.00
2023-04-01T05:39:25.542Z,3.90
2023-04-01T05:40:25.560Z,6.80
2023-04-01T05:41:25.529Z,5.00
2023-04-01T05:42:25.510Z,4.40
2023-04-01T05:43:25.522Z,5.50
2023-04-01T05:44:25.493Z,9.60
2023-04-01T05:45:25.490Z,5.40
2023-04-01T05:46:25.529Z,8.50
2023-04-01T05:47:25.492Z,3.80
2023-04-01T05:48:25.462Z,4.90
2023-04-01T05:49:27.592Z,5.00
2023-04-01T05:50:25.450Z,4.10
2023-04-01T05:51:25.437Z,6.60
2023-04-01T05:52:25.423Z,6.50
2023-04-01T05:53:25.419Z,3.50
2023-04-01T05:54:25.399Z,5.20
2023-04-01T05:55:25.394Z,7.20
2023-04-01T05:56:25.380Z,3.00
2023-04-01T05:57:25.401Z,3.20
2023-04-01T05:58:25.359Z,2.30
2023-04-01T05:59:25.349Z,2.30
2023-04-01T06:00:25.334Z,2.00
2023-04-01T06:01:25.321Z,2.00
2023-04-01T06:02:25.428Z,4.50
2023-04-01T06:03:25.580Z,2.30
2023-04-01T06:04:25.345Z,2.40
2023-04-01T06:05:25.286Z,2.30
2023-04-01T06:06:25.270Z,2.70
2023-04-01T06:07:25.266Z,3.30
2023-04-01T06:08:25.273Z,2.90
2023-04-01T06:09:25.235Z,3.00
2023-04-01T06:10:25.224Z,1.40
2023-04-01T06:11:25.222Z,4.80
2023-04-01T06:12:25.214Z,2.20
2023-04-01T06:13:25.204Z,2.20
2023-04-01T06:14:25.220Z,1.70
2023-04-01T06:15:25.177Z,1.90
2023-04-01T06:16:25.187Z,2.00
2023-04-01T06:17:25.197Z,1.10
2023-04-01T06:18:25.145Z,1.50
2023-04-01T06:19:25.196Z,1.80
2023-04-01T06:20:25.127Z,1.30
2023-04-01T06:21:25.148Z,3.80
2023-04-01T06:22:25.099Z,3.00
2023-04-01T06:23:25.098Z,1.80
2023-04-01T06:24:25.102Z,1.30
2023-04-01T06:25:25.078Z,3.20
2023-04-01T06:26:25.061Z,3.10
2023-04-01T06:27:25.075Z,3.80
2023-04-01T06:28:25.062Z,2.30
2023-04-01T06:29:25.095Z,2.80
2023-04-01T06:30:25.030Z,1.50
2023-04-01T06:31:25.108Z,3.10
2023-04-01T06:32:25.216Z,1.20
2023-04-01T06:33:25.007Z,2.70
2023-04-01T06:34:25.006Z,4.80
2023-04-01T06:35:25.008Z,1.40
2023-04-01T06:36:24.991Z,1.20
2023-04-01T06:37:24.965Z,3.10
2023-04-01T06:38:24.958Z,1.50
2023-04-01T06:39:24.990Z,1.70
2023-04-01T06:40:24.932Z,2.40
2023-04-01T06:41:24.935Z,4.40
2023-04-01T06:42:24.914Z,2.70
2023-04-01T06:43:24.897Z,1.30
2023-04-01T06:44:24.901Z,2.80
2023-04-01T06:45:24.879Z,2.20
2023-04-01T06:46:24.984Z,2.70
2023-04-01T06:47:24.866Z,2.70
2023-04-01T06:48:24.849Z,2.10
2023-04-01T06:49:24.853Z,2.00
2023-04-01T06:50:24.831Z,2.60
2023-04-01T06:51:24.967Z,2.50
2023-04-01T06:52:24.830Z,2.00
2023-04-01T06:53:24.808Z,5.00
2023-04-01T06:54:24.795Z,3.10
2023-04-01T06:55:24.765Z,3.80
2023-04-01T06:56:24.768Z,3.70
2023-04-01T06:57:24.771Z,1.30
2023-04-01T06:58:24.753Z,1.50
2023-04-01T06:59:24.765Z,2.10
2023-04-01T07:00:24.720Z,3.30
2023-04-01T07:01:24.745Z,1.40
2023-04-01T07:02:24.804Z,3.10
2023-04-01T07:03:24.685Z,3.20
2023-04-01T07:04:24.726Z,2.20
2023-04-01T07:05:24.680Z,2.70
2023-04-01T07:06:24.651Z,3.40
2023-04-01T07:07:24.635Z,4.00
2023-04-01T07:08:24.641Z,1.90
2023-04-01T07:09:24.619Z,2.50
2023-04-01T07:10:24.714Z,2.70
2023-04-01T07:11:24.616Z,2.90
2023-04-01T07:12:24.579Z,2.60
2023-04-01T07:13:24.570Z,2.40
2023-04-01T07:14:24.584Z,2.00
2023-04-01T07:15:24.552Z,4.80
2023-04-01T07:16:24.560Z,2.70
2023-04-01T07:17:24.628Z,2.50
2023-04-01T07:18:24.515Z,1.90
2023-04-01T07:19:24.534Z,1.90
2023-04-01T07:20:24.583Z,1.60
2023-04-01T07:21:24.488Z,2.70
2023-04-01T07:22:24.478Z,6.20
2023-04-01T07:23:24.493Z,3.20
2023-04-01T07:24:24.551Z,1.50
2023-04-01T07:25:24.440Z,2.20
2023-04-01T07:26:24.450Z,3.00
2023-04-01T07:27:24.423Z,2.70
2023-04-01T07:28:24.411Z,1.10
2023-04-01T07:29:24.455Z,2.30
2023-04-01T07:30:24.401Z,1.40
2023-04-01T07:31:24.460Z,3.30
2023-04-01T07:32:24.392Z,2.00
2023-04-01T07:33:24.392Z,2.80
2023-04-01T07:34:24.368Z,1.90
2023-04-01T07:35:24.343Z,3.00
2023-04-01T07:36:24.361Z,3.60
2023-04-01T07:37:24.335Z,3.10
2023-04-01T07:38:24.327Z,3.50
2023-04-01T07:39:24.346Z,1.10
2023-04-01T07:40:24.304Z,4.40
2023-04-01T07:41:24.282Z,2.10
2023-04-01T07:42:24.317Z,2.30
2023-04-01T07:43:24.312Z,6.90
2023-04-01T07:44:24.271Z,5.10
2023-04-01T07:45:24.241Z,5.60
2023-04-01T07:46:24.279Z,6.00
2023-04-01T07:47:24.221Z,3.80
2023-04-01T07:48:24.207Z,1.80
2023-04-01T07:49:24.216Z,2.30
2023-04-01T07:50:24.237Z,2.20
2023-04-01T07:51:24.173Z,2.00
2023-04-01T07:52:24.173Z,3.30
2023-04-01T07:53:24.159Z,2.00
2023-04-01T07:54:24.167Z,2.70
2023-04-01T07:55:24.176Z,2.50
2023-04-01T07:56:24.137Z,1.30
2023-04-01T07:57:24.202Z,2.40
2023-04-01T07:58:24.107Z,1.60
2023-04-01T07:59:24.120Z,1.50
2023-04-01T08:00:24.124Z,1.20
2023-04-01T08:01:24.074Z,2.00
2023-04-01T08:02:24.130Z,1.00
2023-04-01T08:03:24.256Z,2.60
2023-04-01T08:04:24.148Z,1.60
2023-04-01T08:05:24.032Z,1.40
2023-04-01T08:06:24.025Z,2.20
2023-04-01T08:07:24.008Z,1.90
2023-04-01T08:08:24.002Z,5.30
2023-04-01T08:09:24.011Z,2.20
2023-04-01T08:10:24.013Z,1.50
2023-04-01T08:11:23.970Z,1.70
2023-04-01T08:12:23.967Z,2.20
2023-04-01T08:13:23.970Z,2.60
2023-04-01T08:14:23.959Z,3.20
2023-04-01T08:15:23.926Z,2.00
2023-04-01T08:16:23.972Z,1.90
2023-04-01T08:17:23.899Z,3.50
2023-04-01T08:18:23.952Z,1.50
2023-04-01T08:19:23.887Z,1.70
2023-04-01T08:20:23.883Z,3.70
2023-04-01T08:21:23.864Z,1.80
2023-04-01T08:22:23.857Z,1.60
2023-04-01T08:23:23.864Z,2.70
2023-04-01T08:24:24.792Z,1.70
2023-04-01T08:25:23.829Z,1.90
2023-04-01T08:26:23.812Z,1.60
2023-04-01T08:27:23.796Z,1.50
2023-04-01T08:28:23.785Z,1.80
2023-04-01T08:29:23.858Z,1.10
2023-04-01T08:30:23.772Z,1.50
2023-04-01T08:31:23.807Z,1.60
2023-04-01T08:32:23.774Z,1.40
2023-04-01T08:33:23.740Z,1.80
2023-04-01T08:34:23.746Z,1.10
2023-04-01T08:35:23.713Z,3.10
2023-04-01T08:36:23.741Z,1.60
2023-04-01T08:37:23.688Z,1.40
2023-04-01T08:38:23.693Z,1.60
2023-04-01T08:39:23.679Z,2.30
2023-04-01T08:40:23.659Z,1.50
2023-04-01T08:41:23.650Z,1.90
2023-04-01T08:42:23.657Z,1.40
2023-04-01T08:43:23.622Z,1.40
2023-04-01T08:44:23.670Z,1.30
2023-04-01T08:45:23.605Z,1.60
2023-04-01T08:46:23.713Z,1.70
2023-04-01T08:47:23.598Z,1.90
2023-04-01T08:48:23.578Z,2.30
2023-04-01T08:49:23.599Z,1.60
2023-04-01T08:50:23.555Z,1.50
2023-04-01T08:51:23.543Z,1.40
2023-04-01T08:52:23.545Z,2.50
2023-04-01T08:53:23.531Z,1.60
2023-04-01T08:54:23.546Z,2.20
2023-04-01T08:55:23.502Z,1.30
2023-04-01T08:56:23.489Z,2.60
2023-04-01T08:57:23.504Z,1.70
2023-04-01T08:58:23.499Z,2.10
2023-04-01T08:59:23.463Z,3.00
2023-04-01T09:00:23.461Z,1.30
2023-04-01T09:01:23.453Z,2.50
2023-04-01T09:02:23.503Z,1.70
2023-04-01T09:03:23.550Z,1.90
2023-04-01T09:04:23.455Z,1.10
2023-04-01T09:05:23.399Z,1.20
2023-04-01T09:06:23.383Z,1.60
2023-04-01T09:07:23.405Z,1.60
2023-04-01T09:08:23.360Z,3.10
2023-04-01T09:09:23.364Z,1.30
2023-04-01T09:10:23.386Z,2.90
2023-04-01T09:11:23.370Z,2.00
2023-04-01T09:12:23.318Z,1.90
2023-04-01T09:13:23.303Z,2.90
2023-04-01T09:14:23.335Z,1.50
2023-04-01T09:15:23.306Z,2.70
2023-04-01T09:16:23.340Z,1.50
2023-04-01T09:17:23.287Z,1.90
2023-04-01T09:18:23.261Z,2.00
2023-04-01T09:19:23.277Z,1.70
2023-04-01T09:20:23.278Z,1.20
2023-04-01T09:21:23.224Z,1.90
2023-04-01T09:22:23.217Z,1.60
2023-04-01T09:23:23.216Z,3.30
2023-04-01T09:24:23.214Z,2.30
2023-04-01T09:25:23.194Z,2.00
2023-04-01T09:26:23.212Z,2.30
2023-04-01T09:27:23.183Z,1.10
2023-04-01T09:28:23.160Z,1.70
2023-04-01T09:29:23.171Z,1.50
2023-04-01T09:30:23.138Z,3.00
2023-04-01T09:31:23.158Z,1.50
2023-04-01T09:32:23.160Z,6.10
2023-04-01T09:33:23.106Z,2.00
2023-04-01T09:34:23.131Z,1.30
2023-04-01T09:35:23.103Z,1.00
2023-04-01T09:36:23.080Z,1.50
2023-04-01T09:37:23.057Z,7.00
2023-04-01T09:38:23.066Z,1.80
2023-04-01T09:39:23.356Z,1.90
2023-04-01T09:40:23.069Z,4.10
2023-04-01T09:41:23.031Z,1.10
2023-04-01T09:42:23.011Z,1.80
2023-04-01T09:43:22.996Z,1.20
2023-04-01T09:44:22.995Z,1.50
2023-04-01T09:45:22.992Z,2.10
2023-04-01T09:46:23.046Z,2.90
2023-04-01T09:47:22.966Z,1.40
2023-04-01T09:48:23.019Z,3.20
2023-04-01T09:49:22.946Z,1.40
2023-04-01T09:50:22.948Z,1.60
2023-04-01T09:51:22.945Z,3.70
2023-04-01T09:52:22.917Z,1.90
2023-04-01T09:53:22.893Z,1.30
2023-04-01T09:54:22.890Z,3.20
2023-04-01T09:55:22.892Z,2.00
2023-04-01T09:56:22.862Z,1.70
2023-04-01T09:57:22.940Z,2.70
2023-04-01T09:58:22.846Z,2.50
2023-04-01T09:59:22.820Z,3.10
2023-04-01T10:00:22.844Z,1.80
2023-04-01T10:01:22.871Z,2.80
2023-04-01T10:02:22.836Z,5.30
2023-04-01T10:03:22.797Z,11.00
2023-04-01T10:04:22.774Z,13.50
2023-04-01T10:05:22.848Z,11.50
2023-04-01T10:06:22.771Z,12.60
2023-04-01T10:07:22.746Z,13.70
2023-04-01T10:08:22.737Z,14.60
2023-04-01T10:09:22.726Z,12.30
2023-04-01T10:10:22.725Z,13.40
2023-04-01T10:11:22.702Z,15.40
2023-04-01T10:12:22.708Z,9.50
2023-04-01T10:13:22.701Z,92.60
2023-04-01T10:14:22.674Z,9.80
2023-04-01T10:15:22.693Z,13.50
2023-04-01T10:16:22.739Z,14.80
2023-04-01T10:17:22.722Z,11.60
2023-04-01T10:18:22.634Z,11.80
2023-04-01T10:19:22.643Z,16.80
2023-04-01T10:20:22.617Z,7.80
2023-04-01T10:21:22.628Z,8.00
2023-04-01T10:22:22.593Z,8.60
2023-04-01T10:23:22.601Z,8.40
2023-04-01T10:24:22.560Z,17.20
2023-04-01T10:25:22.571Z,10.00
2023-04-01T10:26:22.542Z,8.60
2023-04-01T10:27:22.554Z,9.20
2023-04-01T10:28:22.527Z,8.40
2023-04-01T10:29:22.525Z,17.60
2023-04-01T10:30:22.526Z,24.90
2023-04-01T10:31:22.508Z,11.00
2023-04-01T10:32:22.555Z,9.90
2023-04-01T10:33:22.487Z,60.20
2023-04-01T10:34:22.461Z,55.20
2023-04-01T10:35:22.468Z,62.00
2023-04-01T10:36:22.491Z,6.40
2023-04-01T10:37:22.417Z,30.00
2023-04-01T10:38:22.413Z,23.00
2023-04-01T10:39:22.418Z,7.50
2023-04-01T10:40:22.513Z,7.00
2023-04-01T10:41:22.369Z,10.30
2023-04-01T10:42:22.388Z,11.70
2023-04-01T10:43:22.365Z,8.30
2023-04-01T10:44:22.347Z,8.00
2023-04-01T10:45:22.384Z,7.70
2023-04-01T10:46:22.385Z,7.30
2023-04-01T10:47:22.346Z,6.90
2023-04-01T10:48:22.339Z,6.40
2023-04-01T10:49:22.287Z,7.30
2023-04-01T10:50:22.301Z,8.50
2023-04-01T10:51:22.266Z,6.90
2023-04-01T10:52:22.274Z,7.20
2023-04-01T10:53:22.245Z,6.40
2023-04-01T10:54:22.296Z,8.40
2023-04-01T10:55:22.254Z,7.80
2023-04-01T10:56:22.226Z,17.70
2023-04-01T10:57:22.227Z,39.50
2023-04-01T10:58:22.215Z,8.00
2023-04-01T10:59:22.200Z,7.60
2023-04-01T11:00:22.201Z,9.20
2023-04-01T11:01:22.301Z,5.80
2023-04-01T11:02:22.201Z,6.70
2023-04-01T11:03:22.205Z,10.40
2023-04-01T11:04:22.143Z,10.30
2023-04-01T11:05:22.260Z,12.50
2023-04-01T11:06:22.158Z,13.40
2023-04-01T11:07:22.104Z,12.50
2023-04-01T11:08:22.123Z,10.50
2023-04-01T11:09:22.116Z,39.70
2023-04-01T11:10:22.096Z,47.20
2023-04-01T11:11:22.077Z,9.70
2023-04-01T11:12:22.052Z,7.50
2023-04-01T11:13:22.043Z,6.50
2023-04-01T11:14:22.030Z,8.60
2023-04-01T11:15:22.061Z,9.50
2023-04-01T11:16:28.050Z,9.10
2023-04-01T11:17:22.049Z,6.90
2023-04-01T11:18:22.696Z,8.20
2023-04-01T11:19:22.597Z,7.10
2023-04-01T11:20:21.971Z,6.50
2023-04-01T11:21:21.957Z,9.70
2023-04-01T11:22:21.944Z,9.90
2023-04-01T11:23:21.934Z,9.00
2023-04-01T11:24:21.930Z,7.40
2023-04-01T11:25:21.925Z,8.30
2023-04-01T11:26:21.901Z,6.90
2023-04-01T11:27:22.012Z,4.70
2023-04-01T11:28:21.877Z,5.50
2023-04-01T11:29:21.894Z,5.50
2023-04-01T11:30:21.849Z,4.30
2023-04-01T11:31:21.909Z,6.00
2023-04-01T11:32:21.885Z,4.70
2023-04-01T11:33:21.824Z,9.50
2023-04-01T11:34:21.816Z,8.90
2023-04-01T11:35:21.822Z,7.80
2023-04-01T11:36:21.852Z,5.60
2023-04-01T11:37:21.805Z,5.00
2023-04-01T11:38:21.767Z,6.20
2023-04-01T11:39:21.771Z,6.30
2023-04-01T11:40:21.752Z,4.10
2023-04-01T11:41:21.749Z,6.50
2023-04-01T11:42:21.768Z,5.20
2023-04-01T11:43:32.403Z,7.10
2023-04-01T11:44:21.710Z,5.80
2023-04-01T11:45:21.713Z,4.50
2023-04-01T11:46:21.742Z,4.80
2023-04-01T11:47:21.877Z,5.20
2023-04-01T11:48:21.666Z,4.60
2023-04-01T11:49:21.667Z,5.10
2023-04-01T11:50:21.653Z,4.80
2023-04-01T11:51:21.637Z,5.30
2023-04-01T11:52:21.626Z,5.80
2023-04-01T11:53:21.608Z,6.80
2023-04-01T11:54:21.592Z,5.20
2023-04-01T11:55:21.613Z,6.00
2023-04-01T11:56:21.568Z,5.40
2023-04-01T11:57:21.616Z,6.30
2023-04-01T11:58:21.549Z,7.10
2023-04-01T11:59:21.553Z,7.40
2023-04-01T12:00:21.555Z,7.30
2023-04-01T12:01:21.525Z,5.30
2023-04-01T12:02:21.621Z,4.00
2023-04-01T12:03:21.672Z,5.10
2023-04-01T12:04:21.556Z,6.30
2023-04-01T12:05:21.496Z,7.80
2023-04-01T12:06:21.468Z,7.70
2023-04-01T12:07:21.479Z,6.10
2023-04-01T12:08:21.443Z,8.00
2023-04-01T12:09:21.447Z,6.50
2023-04-01T12:10:21.434Z,7.20
2023-04-01T12:11:21.419Z,6.50
2023-04-01T12:12:21.416Z,8.50
2023-04-01T12:13:21.397Z,7.80
2023-04-01T12:14:21.381Z,8.00
2023-04-01T12:15:21.391Z,7.40
2023-04-01T12:16:21.423Z,6.30
2023-04-01T12:17:21.353Z,7.10
2023-04-01T12:18:21.342Z,8.70
2023-04-01T12:19:21.353Z,9.60
2023-04-01T12:20:21.339Z,9.90
2023-04-01T12:21:21.364Z,7.70
2023-04-01T12:22:21.332Z,8.80
2023-04-01T12:23:21.297Z,9.10
2023-04-01T12:24:21.277Z,6.40
2023-04-01T12:25:21.299Z,6.00
2023-04-01T12:26:21.262Z,9.00
2023-04-01T12:27:21.275Z,9.80
2023-04-01T12:28:21.275Z,11.40
2023-04-01T12:29:21.232Z,9.50
2023-04-01T12:30:21.222Z,10.50
2023-04-01T12:31:21.217Z,11.70
2023-04-01T12:32:21.330Z,8.80
2023-04-01T12:33:21.212Z,10.20
2023-04-01T12:34:21.174Z,8.90
2023-04-01T12:35:21.269Z,9.90
2023-04-01T12:36:21.160Z,13.50
2023-04-01T12:37:21.155Z,14.30
2023-04-01T12:38:21.745Z,23.70
2023-04-01T12:39:21.145Z,9.80
2023-04-01T12:40:21.130Z,13.10
2023-04-01T12:41:21.117Z,7.80
2023-04-01T12:42:21.092Z,11.60
2023-04-01T12:43:21.085Z,10.60
2023-04-01T12:44:21.079Z,10.10
2023-04-01T12:45:21.106Z,11.90
2023-04-01T12:46:21.153Z,11.50
2023-04-01T12:47:21.049Z,13.60
2023-04-01T12:48:21.096Z,15.30
2023-04-01T12:49:21.016Z,22.70
2023-04-01T12:50:21.018Z,10.10
2023-04-01T12:51:21.004Z,11.30
2023-04-01T12:52:20.995Z,11.00
2023-04-01T12:53:20.974Z,9.50
2023-04-01T12:54:20.961Z,11.80
2023-04-01T12:55:20.998Z,13.80
2023-04-01T12:56:20.945Z,14.10
2023-04-01T12:57:20.942Z,18.50
2023-04-01T12:58:20.944Z,15.00
2023-04-01T12:59:20.910Z,13.50
2023-04-01T13:00:20.934Z,10.40
2023-04-01T13:01:20.956Z,14.70
2023-04-01T13:02:20.871Z,11.40
2023-04-01T13:03:20.920Z,17.70
2023-04-01T13:04:20.887Z,13.30
2023-04-01T13:05:20.901Z,12.00
2023-04-01T13:06:21.482Z,12.10
2023-04-01T13:07:20.826Z,11.50
2023-04-01T13:08:20.818Z,11.50
2023-04-01T13:09:20.812Z,12.50
2023-04-01T13:10:20.789Z,11.00